AirNav   Pilot Hours Calculator
 
 585 users online  

5AL8 Fairlane Airport
Samson, Alabama, USA

GOING TO SAMSON?


FAA INFORMATION EFFECTIVE 31 JANUARY 2019

Location

FAA Identifier: 5AL8
Lat/Long: 31-06-18.0000N / 085-59-35.0000W
31-06.300000N / 085-59.583333W
31.1050000 / -85.9930556
(estimated)
Elevation: 225 ft. / 69 m (estimated)
From city: 3 miles E of SAMSON, AL
Time zone: UTC -6 (UTC -5 during Daylight Saving Time)
Zip code: 36477

Airport Operations

Airport use: Private use. Permission required prior to landing
Activation date: 03/2004
Control tower: no
ARTCC: JACKSONVILLE CENTER
FSS: ANNISTON FLIGHT SERVICE STATION
Attendance: UNATNDD
Segmented circle: no

Airport Communications

WX AWOS-3PT at EDN (13 nm N): 118.9 (334-347-3524)

Nearby radio navigation aids

VOR radial/distance  VOR name  Freq  Var
EDNr205/(12.4)ENTERPRISE VOR116.6003W
OZRr237/16.9CAIRNS VOR/DME111.2003W
HEYr230/(23.8)HANCHEY VOR110.6003W
RRSr248/30.8WIREGRASS VORTAC111.6002E
CEWr062/39.1CRESTVIEW VORTAC115.9003E

 
NDB name  Hdg/Dist  Freq  Var  ID
RUCKR235/11.621203WOZ --- --..
BOLL WEEVIL185/14.135203WBVG -... ...- --.
LOWE223/20.026903WLOR .-.. --- .-.
JUDD122/23.726402WJUY .--- ..- -.--
HANCHEY230/23.822103WHYE .... -.-- .

Airport Services

Runway Information

Runway 13/31

Dimensions: 2300 x 70 ft. / 701 x 21 m
Surface: turf
Runway edge markings: RY 13/31 MKD WITH CONES 200 FT APART.
RUNWAY 13  RUNWAY 31
Traffic pattern: leftleft

Airport Ownership and Management from official FAA records

Ownership: Privately-owned
Owner: LARRY DELONEY
P.O. BOX 58
WETUMPKA, AL 36092
Phone 334-567-7561
Manager: LARRY DELONEY
P.O. BOX 58
WETUMPKA, AL 36092
Phone 334-567-7561

Airport Operational Statistics

Aircraft based on the field: 1
Single engine airplanes: 1
    

Instrument Procedures

There are no published instrument procedures at 5AL8.

Some nearby airports with instrument procedures:

33J - Geneva Municipal Airport (7 nm SE)
KEDN - Enterprise Municipal Airport (13 nm N)
0J4 - Florala Municipal Airport (17 nm W)
KOZR - Cairns Army Airfield (Fort Rucker) (18 nm NE)
KLOR - Lowe Army Heliport (Fort Rucker) (20 nm NE)
 
Loc | Ops | Rwys | IFR | FBO | Links
Com | Nav | Svcs | Stats | Notes
Area around 5AL8 (Fairlane Airport)
 
Road maps at: MapQuest Bing Google
 
Aerial photo
No photo
 
Sectional chart

 
Airport distance calculator
Flying to Fairlane Airport? Find the distance to fly.

From to 5AL8

Sunrise and sunset
Times for 22-Feb-2019
 Local
(UTC-6)
 Zulu
(UTC)
Morning civil twilight05:5511:55
Sunrise06:1912:19
Sunset17:3623:36
Evening civil twilight18:0000:00

Current date and time
Zulu (UTC)  23-Feb-2019 04:44:17
Local (UTC-6)  22-Feb-2019 22:44:17
 
METAR
KEDN 
13nm N 
230435Z AUTO 17003KT 10SM BKN013 OVC100 20/20 A3014 RMK AO2 T01970197
K0J4 
17nm W 
230413Z AUTO 17005KT 10SM OVC008 21/19 A3015 RMK AO2 T02110189
KSXS 
17nm NE 
230358Z AUTO 20005KT 10SM OVC100 20/19 A3012 RMK AO2 SLP199 T02020194
KOZR 
18nm NE 
230356Z AUTO 15003KT 10SM OVC100 20/19 A3013 RMK AO2 SLP203 T01990189
KLOR 
19nm NE 
230436Z AUTO 00000KT 8SM -RA SCT014 OVC100 19/19 A3013 RMK AO2 RAB36 SLP185
KHEY 
23nm NE 
230438Z AUTO 00000KT 10SM BKN013 OVC100 20/20 A3012 RMK AO2 CIG 013V100 BKN V FEW SLP200
K54J 
24nm S 
230435Z AUTO 16008KT 3SM BR OVC002 21/20 A3013 RMK AO2 T02050200
K79J 
24nm NW 
230356Z AUTO VRB04KT 10SM OVC014 23/19 A3012 RMK AO2 SLP196 T02280194
TAF
KOZR 
18nm NE 
230000Z 2300/2406 15006KT 8000 BR BKN020 QNH3010INS BECMG 2303/2304 17005KT 0800 FG OVC005 510023 QNH3010INS BECMG 2315/2316 18012G18KT 9999 NSW FEW013 BKN025 WS020/18031KT 510013 QNH3007INS BECMG 2317/2318 19015G20KT 9999 SCT016 510013 QNH3002INS BECMG 2323/2324 18009KT 9999 BKN016 510013 QNH3002INS BECMG 2403/2404 18009KT 8000 BR OVC001 510203 QNH3000INS TX28/2300Z TN19/2313Z LAST NO AMDS AFT 2307 NEXT 2312
NOTAMs
Click for the latest NOTAMs
NOTAMs are issued by the DoD/FAA and will open in a separate window not controlled by AirNav.

 

 
 

Would you like to see your business listed on this page?

 If your business provides an interesting product or service to pilots, flight crews, aircraft, or users of the Fairlane Airport, you should consider listing it here.  To start the listing process, click on the button below
 
Add a business
 

Other Pages about Fairlane Airport

Update a link
 
Copyright © AirNav, LLC. All rights reserved. Privacy Policy  Contact